»·PEaware :: N2477J KSMO-KPSP

N2477J :: KSMO-KPSP

FLIGHT INFORMATION

Flight Status: Arrived
Operator: Privately registered:
United States
More flights under this callsign
Pilot: Ray W. (4785)
Aircraft: CESSNA 172 SKYHAWK
(C172)
More flights by this aircraft type
Origin: KSMO Santa Monica Mun
United States
Destination: KPSP Palm Springs Intl
United States
More flights between these airports :: More routes between these airports
Route: +SMO VNY V186 ITSME V264 POM PDZ V186 NIKKL V64 TRM
File this flight plan on PilotEdge
Remarks:
Altitude:
(Current/Filed)
10,000ft
Speed:
(Current/Filed)
100kts
Departed: 23-Dec-17 11:53 AM
Arrived: 23-Dec-17 01:18 PM
Distance/Time
Traveled:
97nm/1:25
Distance/Time
To Go:
Arrived

Flight Plot

Page will automatically refresh every two minutes.

Flight plan parsing failed; only flown route is shown


Map Options




Map Legend


Flown Route
Filed Route
Departure Airport
Arrival Airport
Navaid (VOR, NDB)
Fix

Horizontal Profiles

Position Reports

Time Latitude Longitude Heading Altitude Ground
Speed
23-Dec-17 11:33 34.013924 -118.455246 134 180ft 0kts
23-Dec-17 11:34 34.013924 -118.455245 134 180ft 0kts
23-Dec-17 11:35 34.013924 -118.455245 134 180ft 0kts
23-Dec-17 11:36 34.013924 -118.455245 134 180ft 0kts
23-Dec-17 11:37 34.013924 -118.455245 134 180ft 0kts
23-Dec-17 11:38 34.013924 -118.455245 134 180ft 0kts
23-Dec-17 11:39 34.013924 -118.455245 134 180ft 0kts
23-Dec-17 11:40 34.013924 -118.455245 134 180ft 0kts
23-Dec-17 11:41 34.013924 -118.455245 134 180ft 0kts
23-Dec-17 11:42 34.013924 -118.455245 134 180ft 0kts
23-Dec-17 11:43 34.013924 -118.455245 134 180ft 0kts
23-Dec-17 11:44 34.013924 -118.455245 134 180ft 0kts
23-Dec-17 11:45 34.013924 -118.455245 134 180ft 0kts
23-Dec-17 11:46 34.013924 -118.455245 134 180ft 0kts
23-Dec-17 11:47 34.013924 -118.455245 134 180ft 0kts
23-Dec-17 11:48 34.013924 -118.455245 134 180ft 0kts
23-Dec-17 11:49 34.013924 -118.455245 134 180ft 0kts
23-Dec-17 11:50 34.013924 -118.455245 134 180ft 0kts
23-Dec-17 11:51 34.013924 -118.455245 134 180ft 0kts
23-Dec-17 11:52 34.013924 -118.455245 134 180ft 0kts
23-Dec-17 11:53 34.013838 -118.455050 105 180ft 6kts
23-Dec-17 11:54 34.016359 -118.451798 45 180ft 19kts
23-Dec-17 11:55 34.020333 -118.447105 43 180ft 13kts
23-Dec-17 11:56 34.021052 -118.446101 103 180ft 0kts
23-Dec-17 11:57 34.021052 -118.446101 103 180ft 0kts
23-Dec-17 11:58 34.020701 -118.445800 156 180ft 9kts
23-Dec-17 11:59 34.009275 -118.459929 229 694ft 82kts
23-Dec-17 12:00 34.004327 -118.484903 266 1653ft 84kts
23-Dec-17 12:01 34.005831 -118.512569 269 2611ft 83kts
23-Dec-17 12:02 34.005624 -118.540594 272 3480ft 85kts
23-Dec-17 12:03 34.006617 -118.568869 271 4324ft 85kts
23-Dec-17 12:04 34.005110 -118.597766 271 5021ft 93kts
23-Dec-17 12:05 34.023063 -118.602359 19 5165ft 91kts
23-Dec-17 12:06 34.043876 -118.593975 14 5034ft 74kts
23-Dec-17 12:07 34.064744 -118.586507 17 5391ft 69kts
23-Dec-17 12:08 34.082980 -118.578816 20 6084ft 73kts
23-Dec-17 12:09 34.103896 -118.569711 17 6634ft 92kts
23-Dec-17 12:10 34.128676 -118.559125 22 6939ft 117kts
23-Dec-17 12:11 34.126866 -118.521648 94 6670ft 155kts
23-Dec-17 12:12 34.121643 -118.478887 95 7147ft 131kts
23-Dec-17 12:13 34.117830 -118.432988 93 7155ft 140kts
23-Dec-17 12:14 34.114036 -118.386063 93 7143ft 138kts
23-Dec-17 12:15 34.109806 -118.341959 93 7142ft 127kts
23-Dec-17 12:16 34.105501 -118.300389 93 7143ft 123kts
23-Dec-17 12:17 34.101358 -118.259740 88 7144ft 121kts
23-Dec-17 12:18 34.099471 -118.219047 89 7149ft 123kts
23-Dec-17 12:19 34.097462 -118.175956 89 7150ft 133kts
23-Dec-17 12:20 34.095309 -118.130809 89 7150ft 136kts
23-Dec-17 12:21 34.093104 -118.084919 89 7152ft 137kts
23-Dec-17 12:22 34.090999 -118.042099 87 7607ft 112kts
23-Dec-17 12:23 34.089526 -118.010789 82 8480ft 80kts
23-Dec-17 12:24 34.088430 -117.984308 81 9068ft 76kts
23-Dec-17 12:25 34.090860 -117.950402 92 9049ft 134kts
23-Dec-17 12:26 34.084537 -117.916247 93 9098ft 123kts
23-Dec-17 12:27 34.082363 -117.875366 90 9040ft 126kts
23-Dec-17 12:28 34.080714 -117.831484 96 9059ft 135kts
23-Dec-17 12:29 34.076409 -117.786457 119 9051ft 134kts
23-Dec-17 12:30 34.056556 -117.752577 121 9048ft 121kts
23-Dec-17 12:31 34.035643 -117.718358 123 9042ft 130kts
23-Dec-17 12:32 34.013579 -117.682758 124 9037ft 134kts
23-Dec-17 12:33 33.991120 -117.646663 125 9034ft 135kts
23-Dec-17 12:34 33.968519 -117.610398 125 9032ft 135kts
23-Dec-17 12:35 33.945870 -117.574088 125 9028ft 136kts
23-Dec-17 12:36 33.923178 -117.537737 126 9029ft 136kts
23-Dec-17 12:37 33.895938 -117.511401 146 9550ft 119kts
23-Dec-17 12:38 33.870207 -117.489477 147 10224ft 108kts
23-Dec-17 12:39 33.847432 -117.470179 148 10882ft 91kts
23-Dec-17 12:40 33.834847 -117.459609 148 10996ft 113kts
23-Dec-17 12:41 33.806718 -117.436306 148 10919ft 144kts
23-Dec-17 12:42 33.774761 -117.409651 148 10888ft 135kts
23-Dec-17 12:43 33.744605 -117.384464 148 10886ft 131kts
23-Dec-17 12:44 33.729512 -117.348433 93 10884ft 127kts
23-Dec-17 12:45 33.725591 -117.305191 91 10883ft 133kts
23-Dec-17 12:46 33.721879 -117.260523 91 10882ft 135kts
23-Dec-17 12:47 33.718221 -117.215637 91 10882ft 135kts
23-Dec-17 12:48 33.714537 -117.170367 91 10883ft 136kts
23-Dec-17 12:49 33.710851 -117.125166 91 10882ft 136kts
23-Dec-17 12:50 33.707156 -117.080052 91 10894ft 135kts
23-Dec-17 12:51 33.703456 -117.035128 91 10910ft 134kts
23-Dec-17 12:52 33.699776 -116.990632 92 10925ft 133kts
23-Dec-17 12:53 33.696105 -116.946446 92 10941ft 132kts
23-Dec-17 12:54 33.692442 -116.902548 92 10956ft 132kts
23-Dec-17 12:55 33.688779 -116.858860 92 10966ft 131kts
23-Dec-17 12:56 33.685089 -116.815036 92 10960ft 132kts
23-Dec-17 12:57 33.681115 -116.768121 93 10576ft 144kts
23-Dec-17 12:58 33.676980 -116.719459 93 10183ft 147kts
23-Dec-17 12:59 33.672866 -116.671372 93 9778ft 141kts
23-Dec-17 13:00 33.668919 -116.625304 93 9374ft 137kts
23-Dec-17 13:01 33.665023 -116.580019 92 9012ft 133kts
23-Dec-17 13:02 33.661196 -116.535375 93 9018ft 135kts
23-Dec-17 13:03 33.657277 -116.490171 93 9016ft 136kts
23-Dec-17 13:04 33.653128 -116.442503 94 8703ft 151kts
23-Dec-17 13:05 33.648812 -116.393582 95 8204ft 145kts
23-Dec-17 13:06 33.644598 -116.345761 96 7712ft 144kts
23-Dec-17 13:07 33.640410 -116.298387 96 7323ft 141kts
23-Dec-17 13:08 33.636243 -116.251555 97 7019ft 140kts
23-Dec-17 13:09 33.631997 -116.203939 97 6547ft 145kts
23-Dec-17 13:10 33.627521 -116.156382 91 5852ft 141kts
23-Dec-17 13:11 33.648259 -116.138940 293 4363ft 143kts
23-Dec-17 13:12 33.668529 -116.175792 302 2941ft 118kts
23-Dec-17 13:13 33.677790 -116.212186 276 2966ft 121kts
23-Dec-17 13:14 33.685845 -116.251144 297 3253ft 108kts
23-Dec-17 13:15 33.700568 -116.283367 303 3046ft 102kts
23-Dec-17 13:16 33.715698 -116.310273 305 3051ft 93kts
23-Dec-17 13:17 33.730356 -116.335495 306 3056ft 91kts
23-Dec-17 13:18 33.744934 -116.360492 306 3060ft 91kts
23-Dec-17 13:19 33.760313 -116.386817 305 2902ft 101kts
23-Dec-17 13:20 33.776282 -116.414728 305 2732ft 106kts
23-Dec-17 13:21 33.790851 -116.445469 294 2401ft 105kts
23-Dec-17 13:22 33.803448 -116.478029 299 1633ft 91kts
23-Dec-17 13:23 33.816923 -116.496518 333 722ft 76kts
23-Dec-17 13:24 33.826469 -116.504867 322 480ft 26kts
23-Dec-17 13:25 33.828862 -116.508224 260 480ft 0kts
23-Dec-17 13:26 33.826285 -116.509022 187 480ft 14kts
23-Dec-17 13:27 33.825661 -116.509967 355 480ft 0kts

Navigation Log

Ident Type
Flight plan parsing failed, navigation log unavailable